Time;durP1;ratioP1;P1;durP2;ratioP2;P2;SDS_P1;SDS_P2;PMS_P1;PMS_P2;Temp;Humidity;BMP_temperature;BMP_pressure;BME280_temperature;BME280_humidity;BME280_pressure;Samples;Min_cycle;Max_cycle;Signal;HPM_P1;HPM_P2
2022/06/03 00:01:57;;;;;;;3.95;1.33;;;14.60;73.90;;;;;;5074892;28;20040;-85
2022/06/03 00:04:43;;;;;;;2.92;1.75;;;14.60;73.20;;;;;;5092134;28;20067;-84
2022/06/03 00:07:40;;;;;;;6.32;1.60;;;14.60;73.30;;;;;;5091746;28;20123;-85
2022/06/03 00:10:20;;;;;;;4.18;1.75;;;14.50;72.90;;;;;;5074857;28;20046;-84
2022/06/03 00:13:12;;;;;;;3.53;1.67;;;14.50;72.60;;;;;;5091820;28;20043;-85
2022/06/03 00:15:55;;;;;;;1.38;1.27;;;14.60;72.60;;;;;;5073258;28;20131;-84
2022/06/03 00:18:41;;;;;;;2.55;1.38;;;14.60;72.80;;;;;;5091220;28;20032;-85
2022/06/03 00:21:34;;;;;;;1.75;1.35;;;14.50;72.40;;;;;;5075027;28;20459;-85
2022/06/03 00:24:28;;;;;;;4.80;1.70;;;14.40;72.40;;;;;;5073894;28;20090;-84
2022/06/03 00:27:12;;;;;;;3.55;1.35;;;14.40;72.10;;;;;;5074552;28;20062;-84
2022/06/03 00:29:53;;;;;;;3.03;1.52;;;14.50;72.10;;;;;;5091509;28;20038;-85
2022/06/03 00:32:43;;;;;;;6.00;1.48;;;14.40;72.30;;;;;;5073912;28;20108;-84
2022/06/03 00:35:26;;;;;;;4.23;1.43;;;14.40;73.00;;;;;;5073852;28;20032;-84
2022/06/03 00:37:56;;;;;;;1.40;1.30;;;14.40;73.40;;;;;;5074214;28;20081;-85
2022/06/03 00:40:24;;;;;;;4.97;1.50;;;14.40;73.60;;;;;;5074419;28;20031;-84
2022/06/03 00:43:14;;;;;;;1.88;1.58;;;14.40;73.60;;;;;;5074123;28;20153;-84
2022/06/03 00:46:20;;;;;;;1.95;1.30;;;14.50;74.00;;;;;;5091075;28;20051;-84
2022/06/03 00:49:40;;;;;;;3.17;1.60;;;14.40;74.50;;;;;;5074055;28;20040;-84
2022/06/03 00:52:50;;;;;;;3.42;1.40;;;14.30;75.40;;;;;;4996974;28;20044;-85
2022/06/03 00:55:30;;;;;;;2.80;1.58;;;14.20;76.10;;;;;;5033130;28;20082;-84
2022/06/03 00:58:31;;;;;;;3.70;1.50;;;14.20;76.50;;;;;;5088565;28;20089;-85
2022/06/03 01:01:25;;;;;;;2.78;1.75;;;14.20;76.80;;;;;;4996395;28;20064;-85
2022/06/03 01:04:06;;;;;;;1.70;1.60;;;14.10;77.50;;;;;;5073016;28;20122;-85
2022/06/03 01:06:59;;;;;;;4.18;1.95;;;14.00;77.10;;;;;;5090843;28;20043;-85
2022/06/03 01:09:52;;;;;;;4.20;1.60;;;14.10;76.90;;;;;;5090073;28;20054;-84
2022/06/03 01:12:45;;;;;;;3.28;1.70;;;14.10;77.30;;;;;;5073992;28;20071;-85
2022/06/03 01:15:24;;;;;;;6.05;2.00;;;14.00;77.10;;;;;;5073932;28;20024;-85
2022/06/03 01:18:13;;;;;;;2.95;1.85;;;14.10;76.60;;;;;;5073818;28;20495;-85
2022/06/03 01:21:10;;;;;;;2.20;1.80;;;14.10;76.90;;;;;;5063116;28;20038;-85
2022/06/03 01:24:14;;;;;;;5.40;1.73;;;14.00;77.20;;;;;;5058071;28;20040;-84
2022/06/03 01:26:57;;;;;;;5.03;1.65;;;14.00;76.50;;;;;;5073802;28;20043;-84
2022/06/03 01:29:45;;;;;;;3.03;1.67;;;14.00;76.60;;;;;;5073485;28;20032;-84
2022/06/03 01:32:38;;;;;;;1.88;1.45;;;13.90;76.50;;;;;;5090781;28;20046;-84
2022/06/03 01:35:25;;;;;;;2.45;1.67;;;14.00;76.30;;;;;;5091901;28;20024;-84
2022/06/03 01:37:58;;;;;;;1.58;1.48;;;13.90;76.20;;;;;;5073432;28;20024;-85
2022/06/03 01:40:30;;;;;;;2.65;1.60;;;13.90;76.10;;;;;;5073583;28;20085;-84
2022/06/03 01:43:03;;;;;;;8.75;1.67;;;14.00;75.70;;;;;;5073107;28;20043;-85
2022/06/03 01:45:50;;;;;;;10.65;1.85;;;14.00;75.70;;;;;;5090529;28;20040;-84
2022/06/03 01:48:36;;;;;;;2.53;1.60;;;14.00;75.70;;;;;;5094361;28;20114;-84
2022/06/03 01:51:20;;;;;;;2.47;1.58;;;14.00;76.50;;;;;;5094723;28;20089;-85
2022/06/03 01:54:01;;;;;;;1.60;1.48;;;14.00;76.20;;;;;;5094412;28;20048;-85
2022/06/03 01:56:48;;;;;;;3.58;1.63;;;14.00;76.20;;;;;;5077888;28;20630;-85
2022/06/03 01:59:17;;;;;;;2.83;1.50;;;14.00;76.40;;;;;;5094704;28;20063;-84
2022/06/03 02:01:57;;;;;;;4.38;1.52;;;14.10;76.10;;;;;;5077589;28;20361;-84
2022/06/03 02:04:51;;;;;;;2.38;1.65;;;14.10;76.40;;;;;;5094595;28;20107;-85
2022/06/03 02:07:29;;;;;;;7.20;1.63;;;14.00;76.60;;;;;;5077220;28;20035;-84
2022/06/03 02:10:18;;;;;;;2.90;1.70;;;14.00;77.10;;;;;;5095951;28;20036;-85
2022/06/03 02:13:10;;;;;;;1.75;1.23;;;14.10;77.10;;;;;;5077468;28;20032;-86
2022/06/03 02:16:21;;;;;;;2.45;1.60;;;14.10;77.30;;;;;;5077259;28;20031;-84
2022/06/03 02:19:33;;;;;;;1.70;1.60;;;14.10;77.70;;;;;;5046740;28;20036;-85
2022/06/03 02:22:17;;;;;;;3.42;1.75;;;14.00;78.00;;;;;;5007324;28;20152;-84
2022/06/03 02:25:13;;;;;;;2.03;1.60;;;14.00;78.40;;;;;;5077503;28;20038;-84
2022/06/03 02:27:54;;;;;;;3.22;1.60;;;14.00;78.50;;;;;;5076735;28;20043;-85
2022/06/03 02:30:39;;;;;;;2.72;1.65;;;14.00;79.10;;;;;;5094206;28;20040;-85
2022/06/03 02:33:24;;;;;;;2.53;1.67;;;13.90;79.40;;;;;;5076920;28;20036;-84
2022/06/03 02:36:11;;;;;;;2.70;1.80;;;13.90;79.80;;;;;;5095197;28;20034;-84
2022/06/03 02:38:56;;;;;;;2.33;1.70;;;13.90;79.70;;;;;;5076857;28;20064;-84
2022/06/03 02:41:51;;;;;;;5.70;1.92;;;13.80;80.20;;;;;;5077188;28;20470;-84
2022/06/03 02:44:51;;;;;;;3.95;1.73;;;13.70;81.30;;;;;;5094245;28;20040;-84
2022/06/03 02:47:46;;;;;;;5.43;1.65;;;13.70;81.90;;;;;;5076754;28;20510;-84
2022/06/03 02:50:14;;;;;;;3.97;1.70;;;13.70;82.20;;;;;;5082923;28;20383;-84
2022/06/03 02:53:17;;;;;;;1.95;1.75;;;13.70;82.50;;;;;;5092937;28;20044;-84
2022/06/03 02:56:17;;;;;;;3.15;2.00;;;13.60;82.80;;;;;;5083454;28;20055;-85
2022/06/03 02:59:35;;;;;;;3.17;1.90;;;13.60;83.80;;;;;;5076246;28;20024;-84
2022/06/03 03:02:20;;;;;;;7.50;2.00;;;13.60;84.70;;;;;;5043519;28;20521;-85
2022/06/03 03:05:21;;;;;;;7.00;2.17;;;13.60;85.70;;;;;;5076781;28;20612;-84
2022/06/03 03:08:12;;;;;;;3.57;2.53;;;13.60;86.30;;;;;;5076436;28;20415;-84
2022/06/03 03:10:44;;;;;;;3.87;2.07;;;13.50;86.60;;;;;;5093343;28;20127;-84
2022/06/03 03:13:43;;;;;;;3.97;2.97;;;13.50;87.10;;;;;;5076102;28;20041;-84
2022/06/03 03:16:18;;;;;;;2.35;2.13;;;13.40;87.50;;;;;;5093156;28;20028;-85
2022/06/03 03:19:26;;;;;;;2.60;2.15;;;13.50;88.10;;;;;;5075748;28;20031;-84
2022/06/03 03:22:13;;;;;;;6.43;2.15;;;13.50;88.60;;;;;;5015521;28;20528;-84
2022/06/03 03:25:12;;;;;;;2.50;2.03;;;13.40;89.00;;;;;;5088748;28;20047;-82
2022/06/03 03:28:11;;;;;;;4.40;2.15;;;13.30;90.50;;;;;;5092541;28;20479;-82
2022/06/03 03:31:02;;;;;;;3.65;2.20;;;13.30;90.10;;;;;;5092254;28;20036;-82
2022/06/03 03:34:11;;;;;;;6.38;2.25;;;13.20;90.40;;;;;;5092608;28;20028;-82
2022/06/03 03:36:59;;;;;;;3.10;2.60;;;13.20;91.00;;;;;;5092609;28;20118;-82
2022/06/03 03:39:43;;;;;;;2.20;2.00;;;13.10;91.20;;;;;;5075504;28;20035;-82
2022/06/03 03:42:43;;;;;;;3.05;2.13;;;13.10;91.50;;;;;;5075849;28;20484;-83
2022/06/03 03:45:27;;;;;;;2.80;1.90;;;13.10;91.70;;;;;;5075545;28;20388;-81
2022/06/03 03:48:12;;;;;;;5.05;2.10;;;13.10;91.90;;;;;;5092188;28;20035;-82
2022/06/03 03:51:05;;;;;;;2.40;2.20;;;13.20;92.10;;;;;;5075670;28;20050;-82
2022/06/03 03:53:55;;;;;;;2.65;2.10;;;13.20;92.10;;;;;;5075320;28;20048;-81
2022/06/03 03:56:58;;;;;;;4.53;2.20;;;13.30;92.50;;;;;;5075558;28;20505;-82
2022/06/03 04:00:01;;;;;;;4.88;2.60;;;13.40;92.80;;;;;;5074992;28;20032;-82
2022/06/03 04:03:29;;;;;;;3.30;2.28;;;13.50;93.10;;;;;;5075132;28;20046;-82
2022/06/03 04:05:55;;;;;;;4.13;2.40;;;13.60;93.20;;;;;;4997808;28;20036;-82
2022/06/03 04:08:46;;;;;;;6.80;2.30;;;13.70;93.40;;;;;;5030424;28;20421;-82
2022/06/03 04:11:54;;;;;;;7.30;2.50;;;13.70;93.40;;;;;;5076058;28;20040;-82
2022/06/03 04:14:53;;;;;;;3.92;2.22;;;13.80;93.40;;;;;;5012286;28;20325;-82
2022/06/03 04:18:07;;;;;;;3.40;2.28;;;13.90;93.50;;;;;;5074932;28;20498;-82
2022/06/03 04:21:03;;;;;;;4.20;2.22;;;14.00;93.80;;;;;;5075002;28;20039;-82
2022/06/03 04:24:13;;;;;;;4.35;2.47;;;14.10;93.80;;;;;;5074351;28;20139;-83
2022/06/03 04:27:03;;;;;;;4.00;2.53;;;14.20;93.80;;;;;;5092485;28;20093;-82
2022/06/03 04:30:06;;;;;;;3.72;2.30;;;14.30;93.90;;;;;;5074946;28;20115;-82
2022/06/03 04:33:09;;;;;;;11.98;4.10;;;14.40;93.90;;;;;;5091935;28;20024;-82
2022/06/03 04:36:08;;;;;;;5.70;2.45;;;14.50;93.80;;;;;;5091796;28;20042;-82
2022/06/03 04:38:53;;;;;;;5.43;2.58;;;14.60;93.70;;;;;;5091307;28;20028;-83
2022/06/03 04:41:30;;;;;;;4.28;2.35;;;14.60;93.70;;;;;;5091723;28;20032;-81
2022/06/03 04:44:02;;;;;;;3.25;2.78;;;14.60;93.90;;;;;;5091803;28;20364;-82
2022/06/03 04:46:47;;;;;;;;;;;14.60;94.00;;;;;;5092391;28;20506;-82
2022/06/03 04:49:38;;;;;;;5.68;2.40;;;14.70;94.20;;;;;;5091264;28;19915;-82
2022/06/03 04:52:45;;;;;;;3.97;2.33;;;14.60;94.60;;;;;;5091033;28;20040;-82
2022/06/03 04:55:35;;;;;;;6.30;2.80;;;14.70;94.70;;;;;;5091675;28;20035;-83
2022/06/03 04:58:54;;;;;;;6.20;2.35;;;14.80;94.80;;;;;;5091446;28;20131;-83
2022/06/03 05:01:54;;;;;;;6.38;2.42;;;14.80;94.90;;;;;;4997530;28;20037;-83
2022/06/03 05:04:30;;;;;;;3.20;2.90;;;14.90;95.20;;;;;;5013704;28;20029;-82
2022/06/03 05:07:28;;;;;;;4.60;2.55;;;15.00;95.40;;;;;;5084595;28;20790;-83
2022/06/03 05:10:21;;;;;;;4.70;2.50;;;15.10;95.40;;;;;;5091305;28;20031;-84
2022/06/03 05:13:06;;;;;;;3.38;2.40;;;15.20;95.30;;;;;;5091358;28;20067;-83
2022/06/03 05:16:00;;;;;;;6.00;2.60;;;15.20;95.00;;;;;;5074385;28;20637;-83
2022/06/03 05:18:50;;;;;;;5.45;2.60;;;15.30;95.10;;;;;;5073595;28;20021;-83
2022/06/03 05:21:34;;;;;;;7.53;2.25;;;15.40;95.30;;;;;;5094259;28;20035;-83
2022/06/03 05:24:18;;;;;;;3.72;2.17;;;15.40;95.10;;;;;;5095240;28;20054;-84
2022/06/03 05:27:18;;;;;;;5.22;2.55;;;15.40;95.30;;;;;;5078149;28;20117;-83
2022/06/03 05:30:03;;;;;;;8.57;2.63;;;15.40;95.30;;;;;;5094805;28;20028;-82
2022/06/03 05:32:41;;;;;;;7.53;3.28;;;15.30;95.20;;;;;;5077979;28;20090;-84
2022/06/03 05:35:36;;;;;;;3.08;2.40;;;15.40;95.70;;;;;;5095364;28;20424;-82
2022/06/03 05:38:13;;;;;;;4.28;2.60;;;15.40;95.80;;;;;;5077874;28;20036;-82
2022/06/03 05:44:24;;;;;;;3.95;2.63;;;15.20;97.00;;;;;;5067390;28;20083;-84
2022/06/03 05:47:09;;;;;;;4.95;3.20;;;15.10;97.40;;;;;;5078047;28;20036;-82
2022/06/03 05:49:59;;;;;;;4.07;2.85;;;15.10;98.00;;;;;;5077982;28;20089;-83
2022/06/03 05:52:36;;;;;;;4.22;2.60;;;15.20;98.60;;;;;;5076640;28;20043;-83
2022/06/03 05:55:15;;;;;;;4.70;2.65;;;15.40;98.70;;;;;;5077810;28;20126;-83
2022/06/03 05:57:56;;;;;;;4.53;2.75;;;15.50;98.80;;;;;;5094351;28;20028;-83
2022/06/03 06:00:43;;;;;;;5.03;3.20;;;15.60;98.90;;;;;;5077421;28;20028;-84
2022/06/03 06:03:35;;;;;;;4.38;2.60;;;15.80;98.30;;;;;;5094273;28;20031;-83
2022/06/03 06:06:14;;;;;;;;;;;15.90;99.10;;;;;;5067300;28;20093;-83
2022/06/03 06:08:55;;;;;;;3.00;2.70;;;16.10;98.40;;;;;;5076686;28;20686;-83
2022/06/03 06:11:45;;;;;;;10.25;3.08;;;16.10;98.90;;;;;;5094110;28;20032;-83
2022/06/03 06:14:28;;;;;;;6.70;3.08;;;16.20;98.20;;;;;;5077402;28;20036;-83
2022/06/03 06:16:58;;;;;;;7.22;2.63;;;16.20;98.50;;;;;;5094179;28;20036;-83
2022/06/03 06:19:52;;;;;;;5.05;2.53;;;16.30;99.20;;;;;;5077001;28;20031;-83
2022/06/03 06:22:33;;;;;;;3.40;2.78;;;16.40;98.50;;;;;;5077033;28;20044;-83
2022/06/03 06:25:07;;;;;;;3.33;2.60;;;16.60;98.90;;;;;;5095373;28;20024;-84
2022/06/03 06:27:48;;;;;;;6.07;2.38;;;16.70;98.60;;;;;;5093443;28;20032;-84
2022/06/03 06:30:37;;;;;;;5.37;3.03;;;16.80;98.50;;;;;;5077169;28;20043;-83
2022/06/03 06:33:51;;;;;;;4.97;2.92;;;16.90;97.90;;;;;;5076082;28;20032;-84
2022/06/03 06:36:42;;;;;;;8.70;3.33;;;17.10;98.20;;;;;;5016365;28;20033;-83
2022/06/03 06:39:35;;;;;;;8.23;3.45;;;17.20;98.80;;;;;;5093757;28;20426;-83
2022/06/03 06:42:40;;;;;;;4.10;3.20;;;17.40;99.70;;;;;;5076657;28;20529;-83
2022/06/03 06:45:14;;;;;;;4.95;3.00;;;17.50;99.70;;;;;;5046038;28;20036;-83
2022/06/03 06:47:49;;;;;;;4.55;3.15;;;17.60;99.50;;;;;;5093467;28;20036;-83
2022/06/03 06:50:34;;;;;;;3.72;3.10;;;17.70;99.90;;;;;;5076543;28;20036;-83
2022/06/03 06:53:23;;;;;;;3.85;3.13;;;17.70;99.90;;;;;;5075897;28;20036;-83
2022/06/03 06:56:10;;;;;;;5.03;3.53;;;17.90;99.90;;;;;;5094837;28;20025;-83
2022/06/03 06:58:50;;;;;;;4.57;3.60;;;17.80;99.90;;;;;;5093524;28;20036;-83
2022/06/03 07:01:28;;;;;;;3.83;3.10;;;17.90;99.90;;;;;;5076360;28;20475;-83
2022/06/03 07:03:57;;;;;;;4.60;3.17;;;17.90;99.90;;;;;;5076140;28;20028;-84
2022/06/03 07:06:35;;;;;;;4.45;3.30;;;18.00;99.90;;;;;;5076421;28;20559;-84
2022/06/03 07:09:09;;;;;;;4.65;3.13;;;18.20;99.90;;;;;;5075609;28;20040;-84
2022/06/03 07:11:53;;;;;;;6.20;3.20;;;18.40;99.90;;;;;;5093107;28;20081;-84
2022/06/03 07:14:25;;;;;;;11.02;3.65;;;18.60;99.90;;;;;;5092867;28;20036;-84
2022/06/03 07:20:21;;;;;;;4.43;3.38;;;19.10;99.90;;;;;;5092857;28;20064;-83
2022/06/03 07:22:55;;;;;;;6.45;3.42;;;20.10;99.90;;;;;;5094170;28;20158;-84
2022/06/03 07:25:36;;;;;;;4.35;2.72;;;21.60;97.40;;;;;;5076320;28;20059;-84
2022/06/03 07:28:15;;;;;;;4.90;3.10;;;22.90;94.50;;;;;;5092903;28;20032;-83
2022/06/03 07:30:48;;;;;;;6.50;3.10;;;24.10;92.60;;;;;;5076578;28;20491;-83
2022/06/03 07:33:21;;;;;;;5.60;2.60;;;24.40;90.70;;;;;;5093004;28;20036;-84
2022/06/03 07:36:08;;;;;;;4.13;3.53;;;23.70;91.20;;;;;;5075827;28;20032;-85
2022/06/03 07:38:33;;;;;;;7.25;3.75;;;22.60;92.60;;;;;;5092401;28;20035;-84
2022/06/03 07:41:23;;;;;;;9.95;3.90;;;21.10;94.50;;;;;;5075724;28;20484;-83
2022/06/03 07:44:02;;;;;;;7.43;3.75;;;20.50;96.40;;;;;;5074736;28;20158;-83
2022/06/03 07:46:49;;;;;;;5.63;3.63;;;20.20;97.50;;;;;;5076106;28;20031;-84
2022/06/03 07:49:16;;;;;;;6.45;3.88;;;20.00;97.70;;;;;;5075880;28;20031;-84
2022/06/03 07:51:48;;;;;;;5.03;3.80;;;19.80;99.90;;;;;;5075279;28;20066;-83
2022/06/03 07:54:25;;;;;;;8.30;4.18;;;19.80;99.90;;;;;;5075129;28;20123;-84
2022/06/03 07:57:03;;;;;;;6.05;3.03;;;20.60;99.90;;;;;;5075478;28;20036;-83
2022/06/03 07:59:35;;;;;;;7.75;3.88;;;22.60;98.10;;;;;;5074912;28;20054;-84
2022/06/03 08:02:03;;;;;;;;;;;24.00;94.00;;;;;;5075433;28;20849;-84
2022/06/03 08:04:33;;;;;;;3.92;3.50;;;24.60;92.80;;;;;;5075207;28;20287;-84
2022/06/03 08:12:36;;;;;;;4.30;3.10;;;25.80;90.30;;;;;;5091729;28;20051;-84
2022/06/03 08:15:36;;;;;;;3.63;3.13;;;26.50;88.20;;;;;;5091676;28;20024;-84
2022/06/03 08:18:05;;;;;;;5.60;3.00;;;27.00;85.70;;;;;;5074077;28;20040;-84
2022/06/03 08:20:37;;;;;;;2.92;2.63;;;26.60;82.30;;;;;;5075014;28;20028;-83
2022/06/03 08:23:33;;;;;;;5.18;3.13;;;26.20;83.00;;;;;;5091918;28;20031;-83
2022/06/03 08:26:03;;;;;;;5.28;2.90;;;26.10;83.90;;;;;;5091716;28;20070;-83
2022/06/03 08:28:33;;;;;;;6.63;2.75;;;26.60;84.80;;;;;;5091255;28;20081;-84
2022/06/03 08:31:01;;;;;;;3.13;2.70;;;27.40;81.10;;;;;;5074617;28;20032;-84
2022/06/03 08:33:33;;;;;;;6.15;2.65;;;27.90;82.10;;;;;;5074298;28;20032;-84
2022/06/03 08:36:00;;;;;;;5.50;2.38;;;28.10;79.40;;;;;;5074698;28;20085;-84
2022/06/03 08:38:37;;;;;;;3.63;2.63;;;28.50;79.40;;;;;;5091523;28;20081;-84
2022/06/03 08:41:15;;;;;;;9.27;2.83;;;29.20;77.20;;;;;;5074728;28;20086;-84
2022/06/03 08:43:52;;;;;;;4.95;3.08;;;29.30;75.50;;;;;;5074420;28;20093;-84
2022/06/03 08:46:28;;;;;;;6.05;2.78;;;29.10;76.70;;;;;;5074604;28;20039;-84
2022/06/03 08:49:02;;;;;;;6.13;3.17;;;28.70;75.60;;;;;;5074099;28;20028;-83
2022/06/03 08:51:46;;;;;;;5.60;2.80;;;28.50;75.90;;;;;;5091209;28;20123;-84
2022/06/03 08:54:27;;;;;;;3.00;2.38;;;29.00;77.60;;;;;;5074256;28;20383;-83
2022/06/03 08:57:00;;;;;;;6.45;2.72;;;29.30;75.90;;;;;;5074552;28;20043;-83
2022/06/03 08:59:39;;;;;;;3.45;2.78;;;29.30;77.00;;;;;;5092331;28;20024;-83
2022/06/03 09:02:13;;;;;;;3.75;2.30;;;28.80;75.20;;;;;;5091398;28;20641;-84
2022/06/03 09:05:04;;;;;;;6.20;2.47;;;28.30;77.30;;;;;;5074219;28;20032;-83
2022/06/03 09:07:41;;;;;;;3.10;2.78;;;28.40;78.60;;;;;;5073890;28;20430;-84
2022/06/03 09:10:33;;;;;;;5.47;2.58;;;28.50;78.50;;;;;;5074367;28;20054;-84
2022/06/03 09:13:25;;;;;;;4.22;2.80;;;29.30;76.50;;;;;;5091461;28;20138;-83
2022/06/03 09:15:53;;;;;;;3.85;2.55;;;29.40;77.30;;;;;;5074302;28;20495;-83
2022/06/03 09:18:31;;;;;;;7.50;2.65;;;30.00;74.20;;;;;;5073762;28;20480;-83
2022/06/03 09:21:22;;;;;;;5.97;2.67;;;30.20;74.90;;;;;;5090645;28;20109;-84
2022/06/03 09:23:54;;;;;;;3.65;2.25;;;29.70;72.80;;;;;;5074014;28;20035;-84
2022/06/03 09:26:31;;;;;;;8.15;2.70;;;28.90;77.30;;;;;;5090888;28;20064;-84
2022/06/03 09:29:00;;;;;;;3.88;2.33;;;28.90;77.40;;;;;;5073162;28;20032;-84
2022/06/03 09:31:26;;;;;;;16.45;2.80;;;29.60;75.10;;;;;;5073683;28;20028;-83
2022/06/03 09:33:57;;;;;;;4.03;2.65;;;30.40;75.30;;;;;;5073912;28;20657;-83
2022/06/03 09:36:25;;;;;;;4.43;2.65;;;30.10;72.40;;;;;;5090777;28;20039;-83
2022/06/03 09:38:56;;;;;;;2.88;2.50;;;30.20;74.80;;;;;;5073939;28;20068;-83
2022/06/03 09:41:29;;;;;;;5.40;2.75;;;30.80;74.60;;;;;;5074274;28;20028;-84
2022/06/03 09:43:57;;;;;;;6.57;2.20;;;31.60;70.60;;;;;;5090541;28;20070;-83
2022/06/03 09:46:26;;;;;;;3.38;2.30;;;31.00;73.00;;;;;;5073948;28;20032;-83
2022/06/03 09:48:52;;;;;;;6.03;2.63;;;30.70;73.00;;;;;;5073633;28;20032;-84
2022/06/03 09:51:25;;;;;;;6.88;2.47;;;29.90;73.70;;;;;;5072930;28;20036;-83
2022/06/03 09:53:51;;;;;;;4.93;2.30;;;29.50;74.10;;;;;;5091617;28;20795;-84
2022/06/03 09:56:29;;;;;;;3.17;2.35;;;29.60;73.90;;;;;;5073463;28;20383;-84
2022/06/03 09:59:02;;;;;;;5.00;2.63;;;29.40;73.10;;;;;;5073903;28;20142;-84
2022/06/03 10:01:28;;;;;;;4.65;2.60;;;29.60;75.20;;;;;;5090827;28;20032;-83
2022/06/03 10:04:04;;;;;;;2.80;2.50;;;28.70;76.50;;;;;;5073657;28;20086;-83
2022/06/03 10:06:46;;;;;;;8.13;2.50;;;28.70;75.60;;;;;;5091961;28;20077;-84
2022/06/03 10:12:49;;;;;;;3.43;2.33;;;30.10;74.50;;;;;;5093643;28;20480;-84
2022/06/03 10:18:22;;;;;;;2.30;2.10;;;28.90;75.40;;;;;;5093648;28;20020;-83
2022/06/03 10:20:50;;;;;;;6.38;2.33;;;28.40;76.70;;;;;;5094391;28;20141;-83
2022/06/03 10:23:20;;;;;;;2.15;1.95;;;28.70;75.60;;;;;;5076813;28;20039;-84
2022/06/03 10:25:49;;;;;;;3.55;2.40;;;29.00;79.50;;;;;;5093331;28;20032;-84
2022/06/03 10:28:15;;;;;;;5.18;1.70;;;28.60;75.70;;;;;;5076697;28;20127;-83
2022/06/03 10:30:43;;;;;;;5.97;2.00;;;28.70;76.60;;;;;;5076792;28;20126;-84
2022/06/03 10:33:17;;;;;;;5.03;2.35;;;29.50;73.20;;;;;;5093370;28;20036;-84
2022/06/03 10:35:43;;;;;;;3.83;2.40;;;29.50;73.40;;;;;;5076509;28;20483;-84
2022/06/03 10:38:09;;;;;;;3.35;2.08;;;29.70;73.50;;;;;;5093317;28;20038;-83
2022/06/03 10:40:36;;;;;;;2.72;2.10;;;29.60;73.30;;;;;;5076281;28;20115;-84
2022/06/03 10:43:03;;;;;;;4.90;2.47;;;29.90;74.70;;;;;;5076372;28;20474;-84
2022/06/03 10:45:32;;;;;;;9.88;2.92;;;29.50;72.80;;;;;;5093425;28;20036;-83
2022/06/03 10:47:58;;;;;;;5.20;2.33;;;29.30;72.30;;;;;;5092996;28;20451;-84
2022/06/03 10:50:26;;;;;;;5.15;2.10;;;29.40;76.00;;;;;;5076795;28;20122;-84
2022/06/03 11:01:49;;;;;;;2.50;2.25;;;31.00;70.10;;;;;;5092798;28;20028;-84
2022/06/03 11:04:37;;;;;;;3.83;2.08;;;30.60;70.10;;;;;;5076325;28;20410;-84
2022/06/03 11:07:22;;;;;;;3.78;2.25;;;30.80;72.20;;;;;;5093448;28;20085;-84
2022/06/03 11:10:04;;;;;;;2.53;2.25;;;30.10;70.20;;;;;;5076195;28;20387;-84
2022/06/03 11:12:30;;;;;;;2.65;2.45;;;29.60;72.30;;;;;;5076382;28;20036;-83
2022/06/03 11:14:56;;;;;;;5.55;1.98;;;30.00;73.00;;;;;;5093273;28;20073;-84
2022/06/03 11:17:32;;;;;;;3.22;2.17;;;29.60;71.10;;;;;;5076527;28;20028;-83
2022/06/03 11:19:58;;;;;;;3.15;2.15;;;29.10;72.90;;;;;;5075902;28;20020;-84
2022/06/03 11:22:45;;;;;;;4.60;1.83;;;29.40;72.40;;;;;;5092441;28;20105;-85
2022/06/03 11:25:27;;;;;;;2.20;1.70;;;30.30;70.00;;;;;;5075970;28;20036;-84
2022/06/03 11:28:08;;;;;;;3.63;1.98;;;30.60;68.80;;;;;;5092506;28;20509;-84
2022/06/03 11:30:46;;;;;;;2.40;1.98;;;29.90;71.60;;;;;;5075936;28;20036;-83
2022/06/03 11:33:29;;;;;;;3.67;2.55;;;30.30;70.70;;;;;;5075806;28;20036;-83
2022/06/03 11:36:02;;;;;;;6.22;2.30;;;30.00;69.20;;;;;;5075368;28;20032;-84
2022/06/03 11:38:40;;;;;;;3.55;1.80;;;30.40;68.40;;;;;;5075498;28;20032;-84
2022/06/03 11:41:29;;;;;;;4.97;2.10;;;30.70;68.70;;;;;;5092445;28;20647;-84
2022/06/03 11:44:16;;;;;;;2.90;2.10;;;30.10;70.30;;;;;;5091654;28;20064;-84
2022/06/03 11:47:04;;;;;;;5.20;2.20;;;30.40;68.50;;;;;;5075529;28;20031;-84
2022/06/03 11:49:30;;;;;;;5.65;2.25;;;30.20;69.10;;;;;;5075320;28;20059;-84
2022/06/03 11:51:56;;;;;;;3.05;1.70;;;30.40;70.10;;;;;;5092182;28;20032;-85
2022/06/03 11:54:25;;;;;;;7.53;2.33;;;29.80;71.70;;;;;;5075012;28;20028;-84
2022/06/03 11:56:51;;;;;;;6.22;2.35;;;29.40;71.30;;;;;;5075344;28;20436;-84
2022/06/03 11:59:24;;;;;;;5.13;2.70;;;29.30;72.60;;;;;;5091424;28;20039;-84
2022/06/03 12:01:49;;;;;;;2.72;2.42;;;29.60;74.20;;;;;;5092313;28;20533;-84
2022/06/03 12:04:25;;;;;;;3.40;2.78;;;29.90;72.10;;;;;;5092628;28;20024;-84
2022/06/03 12:07:10;;;;;;;6.22;2.10;;;29.50;71.70;;;;;;5074880;28;20036;-85
2022/06/03 12:09:57;;;;;;;4.60;2.10;;;29.60;73.30;;;;;;5091830;28;20478;-84
2022/06/03 12:15:30;;;;;;;6.15;2.15;;;30.30;71.00;;;;;;5091974;28;20035;-83
2022/06/03 12:18:17;;;;;;;2.22;2.00;;;30.50;69.80;;;;;;5074733;28;20035;-84
2022/06/03 12:20:49;;;;;;;7.53;2.17;;;30.40;69.70;;;;;;5034512;28;20032;-83
2022/06/03 12:23:14;;;;;;;4.43;1.95;;;30.60;68.00;;;;;;5091921;28;20032;-83
2022/06/03 12:25:40;;;;;;;7.45;1.85;;;31.20;65.50;;;;;;5075469;28;20088;-84
2022/06/03 12:28:15;;;;;;;2.13;1.92;;;31.40;68.60;;;;;;5091957;28;20024;-84
2022/06/03 12:31:02;;;;;;;8.20;2.05;;;31.60;68.60;;;;;;5091240;28;20038;-84
2022/06/03 12:33:40;;;;;;;2.97;2.03;;;31.40;68.40;;;;;;5091820;28;20064;-85
2022/06/03 12:36:27;;;;;;;4.13;2.30;;;31.40;69.30;;;;;;5091442;28;20036;-84
2022/06/03 12:38:54;;;;;;;7.28;2.35;;;31.80;68.60;;;;;;5073729;28;20024;-83
2022/06/03 12:41:45;;;;;;;3.95;2.17;;;32.20;67.10;;;;;;5091504;28;20085;-84
2022/06/03 12:44:55;;;;;;;2.92;2.50;;;31.80;69.20;;;;;;5073920;28;20493;-84
2022/06/03 12:47:33;;;;;;;8.05;2.30;;;31.10;68.10;;;;;;5031007;28;20047;-84
2022/06/03 12:50:05;;;;;;;3.80;2.30;;;30.50;68.40;;;;;;5092027;28;20487;-84
2022/06/03 12:52:33;;;;;;;4.47;2.72;;;30.50;69.20;;;;;;5074809;28;20048;-84
2022/06/03 12:55:21;;;;;;;2.95;2.60;;;30.40;68.10;;;;;;5092004;28;20065;-84
2022/06/03 12:57:50;;;;;;;4.10;2.35;;;30.50;71.60;;;;;;5073973;28;20027;-84
2022/06/03 13:00:19;;;;;;;2.30;2.10;;;31.00;69.90;;;;;;5074471;28;20433;-84
2022/06/03 13:02:52;;;;;;;7.15;2.55;;;31.50;68.60;;;;;;5091195;28;20035;-84
2022/06/03 13:05:34;;;;;;;5.25;2.05;;;31.90;68.60;;;;;;5091276;28;20039;-84
2022/06/03 13:08:09;;;;;;;4.15;2.35;;;31.80;69.10;;;;;;5073978;28;20044;-84
2022/06/03 13:11:04;;;;;;;4.03;2.45;;;31.20;69.40;;;;;;5091068;28;20433;-84
2022/06/03 13:13:30;;;;;;;5.57;2.60;;;30.50;68.70;;;;;;5073870;28;20039;-84
2022/06/03 13:16:17;;;;;;;3.78;2.60;;;29.90;71.00;;;;;;5073875;28;20066;-84
2022/06/03 13:18:52;;;;;;;4.47;2.50;;;30.00;71.30;;;;;;5073649;28;20028;-84
2022/06/03 13:21:28;;;;;;;4.30;2.78;;;30.10;71.30;;;;;;5090567;28;20020;-84
2022/06/03 13:24:20;;;;;;;4.47;2.17;;;30.30;70.70;;;;;;5073762;28;20501;-84
2022/06/03 13:30:37;;;;;;;3.65;2.58;;;30.00;70.00;;;;;;5091897;28;20054;-84
2022/06/03 13:33:20;;;;;;;3.63;2.45;;;29.80;72.20;;;;;;5073394;28;20123;-83
2022/06/03 13:36:02;;;;;;;5.35;2.92;;;29.70;72.70;;;;;;5090960;28;20082;-84
2022/06/03 13:38:46;;;;;;;4.55;2.47;;;29.60;72.10;;;;;;5090623;28;20032;-84
2022/06/03 13:45:04;;;;;;;4.75;2.80;;;29.00;71.90;;;;;;5095024;28;20476;-84
2022/06/03 13:47:42;;;;;;;4.05;2.60;;;28.80;75.90;;;;;;5076758;28;20036;-84
2022/06/03 13:50:14;;;;;;;4.32;2.58;;;28.40;74.70;;;;;;5077445;28;20055;-84
2022/06/03 13:52:46;;;;;;;5.10;2.80;;;28.20;77.20;;;;;;5077194;28;20032;-84
2022/06/03 13:55:24;;;;;;;9.85;3.22;;;28.00;77.30;;;;;;5077440;28;20024;-84
2022/06/03 13:57:58;;;;;;;5.72;2.97;;;27.70;79.50;;;;;;5078386;28;20028;-83
2022/06/03 14:00:26;;;;;;;6.25;3.40;;;27.30;81.90;;;;;;5077717;28;20390;-84
2022/06/03 14:03:06;;;;;;;11.85;3.13;;;27.10;82.10;;;;;;5077826;28;20040;-84
2022/06/03 14:05:42;;;;;;;8.23;3.38;;;27.00;85.00;;;;;;5077624;28;20032;-83
2022/06/03 14:08:24;;;;;;;23.52;7.80;;;26.90;83.80;;;;;;5094388;28;20067;-83
2022/06/03 14:11:22;;;;;;;41.75;18.88;;;26.80;85.20;;;;;;5077742;28;20043;-83
2022/06/03 14:14:06;;;;;;;4.25;3.50;;;26.60;86.70;;;;;;5061696;28;20569;-83
2022/06/03 14:16:55;;;;;;;10.55;3.15;;;26.50;87.20;;;;;;5094326;28;20518;-83
2022/06/03 14:19:32;;;;;;;7.50;3.78;;;26.20;87.60;;;;;;5076680;28;20433;-84
2022/06/03 14:22:03;;;;;;;12.23;3.20;;;25.80;90.00;;;;;;5077600;28;20601;-83
2022/06/03 14:24:37;;;;;;;8.25;3.40;;;25.50;90.50;;;;;;5077083;28;20032;-83
2022/06/03 14:30:41;;;;;;;6.22;3.65;;;24.90;92.50;;;;;;5093035;28;20760;-83
2022/06/03 14:33:09;;;;;;;4.20;3.15;;;25.00;93.30;;;;;;5093266;28;20043;-83
2022/06/03 14:35:38;;;;;;;10.55;3.92;;;25.40;93.10;;;;;;5076665;28;20035;-83
2022/06/03 14:38:36;;;;;;;23.02;4.80;;;25.60;92.80;;;;;;5093045;28;20042;-84
2022/06/03 14:41:05;;;;;;;4.68;3.72;;;25.60;92.80;;;;;;5059045;28;20040;-83
2022/06/03 14:43:31;;;;;;;4.65;3.38;;;25.30;93.00;;;;;;5076451;28;20043;-83
2022/06/03 14:46:06;;;;;;;52.72;7.05;;;25.10;92.80;;;;;;5076575;28;20031;-83
2022/06/03 14:48:44;;;;;;;9.07;4.20;;;25.10;93.90;;;;;;5075934;28;20040;-83